Wetterdaten: Woche 12.03.12 - 18.03.12 (KW11)
Datum Zeit Temp. A. Feuchte A. Luftdruck Regen Wind Richtung Taupunkt Windchill Windben
12.03.2012 00:00 6,9 C 67 % 1023,9 hPa 0,0 l/m 15,0 km/h N 1,2 C 1,4 C 33,4 km/h
12.03.2012 01:00 6,8 C 67 % 1023,7 hPa 0,0 l/m 14,3 km/h N 1,1 C 1,7 C 30,2 km/h
12.03.2012 02:00 7,0 C 68 % 1023,3 hPa 0,0 l/m 11,9 km/h N 1,5 C 3,2 C 29,8 km/h
12.03.2012 03:00 7,1 C 71 % 1022,9 hPa 0,0 l/m 11,8 km/h N 2,1 C 3,3 C 26,9 km/h
12.03.2012 04:00 6,8 C 76 % 1022,7 hPa 0,0 l/m 12,1 km/h N 2,9 C 2,8 C 23,7 km/h
12.03.2012 05:00 6,6 C 80 % 1022,4 hPa 0,0 l/m 14,7 km/h N 3,4 C 1,2 C 33,4 km/h
12.03.2012 06:00 6,3 C 83 % 1022,3 hPa 0,0 l/m 13,3 km/h N 3,7 C 1,6 C 29,8 km/h
12.03.2012 07:00 6,8 C 82 % 1022,1 hPa 0,0 l/m 14,6 km/h N 3,9 C 1,5 C 31,0 km/h
12.03.2012 08:00 7,3 C 79 % 1022,3 hPa 0,0 l/m 12,6 km/h N 3,9 C 3,1 C 29,4 km/h
12.03.2012 09:00 7,4 C 78 % 1022,6 hPa 0,0 l/m 15,5 km/h N 3,9 C 1,8 C 31,7 km/h
12.03.2012 10:00 8,1 C 77 % 1022,3 hPa 0,0 l/m 14,5 km/h N 4,4 C 3,2 C 30,6 km/h
12.03.2012 11:00 8,6 C 76 % 1022,3 hPa 0,0 l/m 15,3 km/h N 4,6 C 3,3 C 33,8 km/h
12.03.2012 12:00 8,8 C 77 % 1022,0 hPa 0,0 l/m 12,9 km/h N 5,0 C 4,7 C 29,8 km/h
12.03.2012 13:00 9,4 C 76 % 1021,6 hPa 0,0 l/m 13,7 km/h N 5,2 C 4,9 C 35,4 km/h
12.03.2012 14:00 9,3 C 76 % 1021,5 hPa 0,0 l/m 16,9 km/h N 5,2 C 3,5 C 35,4 km/h
12.03.2012 15:00 9,4 C 75 % 1021,5 hPa 0,0 l/m 15,3 km/h N 5,1 C 4,3 C 35,4 km/h
12.03.2012 16:00 9,5 C 75 % 1021,9 hPa 0,0 l/m 12,9 km/h N 5,2 C 5,5 C 27,4 km/h
12.03.2012 17:00 8,4 C 81 % 1022,7 hPa 0,3 l/m 11,0 km/h N 5,4 C 5,3 C 25,8 km/h
12.03.2012 18:00 8,0 C 83 % 1023,1 hPa 0,0 l/m 9,8 km/h N 5,2 C 5,6 C 21,3 km/h
12.03.2012 19:00 8,1 C 83 % 1023,6 hPa 0,0 l/m 12,4 km/h N 5,4 C 4,1 C 26,9 km/h
12.03.2012 20:00 8,3 C 83 % 1024,0 hPa 0,0 l/m 13,5 km/h N 5,6 C 3,8 C 28,1 km/h
12.03.2012 21:00 8,4 C 82 % 1024,5 hPa 0,0 l/m 12,1 km/h N 5,5 C 4,6 C 26,2 km/h
12.03.2012 22:00 8,4 C 82 % 1025,2 hPa 0,0 l/m 11,2 km/h N 5,5 C 5,1 C 26,5 km/h
12.03.2012 23:00 8,3 C 82 % 1025,7 hPa 0,0 l/m 9,2 km/h N 5,5 C 6,2 C 22,1 km/h
13.03.2012 00:00 7,8 C 83 % 1026,1 hPa 0,3 l/m 7,3 km/h N 5,0 C 6,9 C 17,3 km/h
13.03.2012 01:00 7,6 C 81 % 1026,2 hPa 0,8 l/m 7,3 km/h N 4,6 C 6,7 C 19,3 km/h
13.03.2012 02:00 7,6 C 83 % 1026,2 hPa 0,0 l/m 8,2 km/h N 4,8 C 6,3 C 21,3 km/h
13.03.2012 03:00 7,4 C 83 % 1026,1 hPa 0,0 l/m 7,0 km/h N 4,8 C 6,9 C 17,7 km/h
13.03.2012 04:00 7,5 C 83 % 1026,1 hPa 0,0 l/m 6,6 km/h N 4,8 C 7,0 C 16,9 km/h
13.03.2012 05:00 7,6 C 82 % 1026,5 hPa 0,0 l/m 6,9 km/h N 4,7 C 7,1 C 16,1 km/h
13.03.2012 06:00 7,5 C 81 % 1026,7 hPa 0,0 l/m 8,3 km/h N 4,5 C 6,1 C 19,7 km/h
13.03.2012 07:00 7,7 C 82 % 1027,2 hPa 0,0 l/m 7,5 km/h N 4,7 C 6,7 C 18,1 km/h
13.03.2012 08:00 8,3 C 80 % 1027,4 hPa 0,0 l/m 9,5 km/h N 5,0 C 6,0 C 21,7 km/h
13.03.2012 09:00 9,1 C 77 % 1027,6 hPa 0,0 l/m 11,5 km/h N 5,3 C 5,8 C 25,7 km/h
13.03.2012 10:00 9,9 C 74 % 1027,8 hPa 0,0 l/m 13,0 km/h N 5,4 C 5,9 C 27,0 km/h
13.03.2012 11:00 10,1 C 72 % 1027,8 hPa 0,0 l/m 10,1 km/h N 5,3 C 7,7 C 22,5 km/h
13.03.2012 12:00 10,8 C 68 % 1027,5 hPa 0,0 l/m 11,4 km/h N 5,0 C 7,7 C 26,2 km/h
13.03.2012 13:00 10,9 C 65 % 1027,0 hPa 0,0 l/m 13,1 km/h N 4,6 C 7,0 C 27,4 km/h
13.03.2012 14:00 11,3 C 64 % 1026,7 hPa 0,0 l/m 14,0 km/h N 4,7 C 7,2 C 30,6 km/h
13.03.2012 15:00 10,8 C 66 % 1026,7 hPa 0,0 l/m 11,1 km/h N 4,7 C 7,9 C 24,5 km/h
13.03.2012 16:00 10,3 C 70 % 1026,7 hPa 0,0 l/m 13,0 km/h N 5,0 C 6,4 C 28,6 km/h
13.03.2012 17:00 9,9 C 72 % 1026,7 hPa 0,0 l/m 10,6 km/h N 4,9 C 7,1 C 22,9 km/h
13.03.2012 18:00 9,6 C 73 % 1026,9 hPa 0,0 l/m 9,5 km/h N 4,9 C 7,4 C 22,1 km/h
13.03.2012 19:00 9,3 C 74 % 1026,9 hPa 0,0 l/m 9,7 km/h N 4,8 C 7,0 C 21,3 km/h
13.03.2012 20:00 9,2 C 74 % 1027,1 hPa 0,0 l/m 9,6 km/h N 4,8 C 7,0 C 22,5 km/h
13.03.2012 21:00 8,9 C 73 % 1027,2 hPa 0,0 l/m 7,2 km/h N 4,4 C 8,3 C 19,3 km/h
13.03.2012 22:00 8,8 C 73 % 1027,0 hPa 0,0 l/m 9,9 km/h N 4,2 C 6,5 C 21,3 km/h
13.03.2012 23:00 8,7 C 70 % 1027,1 hPa 0,0 l/m 10,5 km/h N 3,4 C 5,9 C 24,5 km/h
14.03.2012 00:00 8,0 C 70 % 1027,3 hPa 0,0 l/m 10,6 km/h N 2,9 C 5,1 C 28,6 km/h
14.03.2012 01:00 7,5 C 71 % 1027,3 hPa 0,0 l/m 9,5 km/h N 2,6 C 5,2 C 23,7 km/h
14.03.2012 02:00 7,0 C 72 % 1027,0 hPa 0,0 l/m 7,8 km/h N 2,4 C 5,9 C 20,9 km/h
14.03.2012 03:00 6,9 C 71 % 1026,9 hPa 0,0 l/m 10,3 km/h N 1,9 C 4,0 C 22,5 km/h
14.03.2012 04:00 6,6 C 72 % 1027,1 hPa 0,0 l/m 9,8 km/h N 2,0 C 4,0 C 24,5 km/h
14.03.2012 05:00 7,1 C 71 % 1027,4 hPa 0,0 l/m 12,1 km/h N 2,1 C 3,2 C 26,1 km/h
14.03.2012 06:00 7,3 C 69 % 1027,3 hPa 0,0 l/m 16,0 km/h N 1,9 C 1,5 C 34,6 km/h
14.03.2012 07:00 7,2 C 70 % 1027,4 hPa 0,0 l/m 11,2 km/h N 2,0 C 3,9 C 25,8 km/h
14.03.2012 08:00 7,7 C 67 % 1027,6 hPa 0,0 l/m 13,6 km/h N 1,9 C 3,0 C 28,6 km/h
14.03.2012 09:00 7,8 C 65 % 1027,9 hPa 0,0 l/m 14,4 km/h N 1,7 C 2,8 C 29,0 km/h
14.03.2012 10:00 8,1 C 65 % 1028,3 hPa 0,0 l/m 14,4 km/h N 1,9 C 3,2 C 29,4 km/h
14.03.2012 11:00 9,1 C 61 % 1028,1 hPa 0,0 l/m 13,5 km/h N 2,0 C 4,8 C 26,2 km/h
14.03.2012 12:00 9,5 C 62 % 1027,8 hPa 0,0 l/m 14,8 km/h N 2,5 C 4,6 C 33,4 km/h
14.03.2012 13:00 9,8 C 60 % 1026,9 hPa 0,0 l/m 15,8 km/h N 2,5 C 4,6 C 31,4 km/h
14.03.2012 14:00 10,6 C 59 % 1026,2 hPa 0,0 l/m 14,1 km/h N 2,8 C 6,3 C 31,8 km/h
14.03.2012 15:00 10,4 C 60 % 1026,1 hPa 0,0 l/m 15,1 km/h N 2,9 C 5,6 C 29,8 km/h
14.03.2012 16:00 8,9 C 64 % 1026,4 hPa 0,0 l/m 13,2 km/h N 2,5 C 4,7 C 29,4 km/h
14.03.2012 17:00 8,3 C 65 % 1026,6 hPa 0,0 l/m 11,5 km/h N 2,1 C 4,8 C 24,1 km/h
14.03.2012 18:00 7,9 C 67 % 1027,3 hPa 0,0 l/m 8,8 km/h N 2,1 C 6,1 C 20,9 km/h
14.03.2012 19:00 7,7 C 69 % 1027,9 hPa 0,0 l/m 9,0 km/h N 2,3 C 5,7 C 21,3 km/h
14.03.2012 20:00 7,6 C 69 % 1028,4 hPa 0,0 l/m 9,4 km/h N 2,2 C 5,4 C 22,5 km/h
14.03.2012 21:00 7,5 C 68 % 1029,2 hPa 0,0 l/m 10,2 km/h N 2,0 C 4,7 C 22,5 km/h
14.03.2012 22:00 7,2 C 68 % 1029,6 hPa 0,0 l/m 9,8 km/h N 1,7 C 4,6 C 20,5 km/h
14.03.2012 23:00 6,8 C 68 % 1029,8 hPa 0,0 l/m 7,7 km/h N 1,3 C 5,7 C 19,3 km/h
15.03.2012 00:00 6,6 C 68 % 1030,1 hPa 0,0 l/m 8,6 km/h N 1,0 C 4,9 C 22,5 km/h
15.03.2012 01:00 6,5 C 66 % 1030,3 hPa 0,0 l/m 12,2 km/h N 0,6 C 2,5 C 28,2 km/h
15.03.2012 02:00 6,6 C 65 % 1030,2 hPa 0,0 l/m 13,3 km/h N 0,5 C 1,8 C 28,1 km/h
15.03.2012 03:00 6,6 C 65 % 1030,1 hPa 0,0 l/m 10,1 km/h N 0,4 C 3,8 C 22,5 km/h
15.03.2012 04:00 6,6 C 65 % 1030,1 hPa 0,0 l/m 7,8 km/h N 0,5 C 5,4 C 20,9 km/h
15.03.2012 05:00 6,5 C 66 % 1030,2 hPa 0,0 l/m 8,1 km/h N 0,5 C 5,1 C 18,5 km/h
15.03.2012 06:00 6,6 C 65 % 1030,4 hPa 0,0 l/m 8,2 km/h N 0,5 C 5,1 C 18,1 km/h
15.03.2012 07:00 6,3 C 67 % 1030,7 hPa 0,0 l/m 7,3 km/h N 0,7 C 5,5 C 17,3 km/h
15.03.2012 08:00 6,6 C 68 % 1031,2 hPa 0,0 l/m 7,7 km/h N 1,1 C 5,5 C 18,1 km/h
15.03.2012 09:00 7,1 C 66 % 1031,6 hPa 0,0 l/m 6,0 km/h N 1,2 C 7,0 C 14,5 km/h
15.03.2012 10:00 8,2 C 63 % 1031,6 hPa 0,0 l/m 7,4 km/h N 1,5 C 7,5 C 15,7 km/h
15.03.2012 11:00 9,2 C 61 % 1031,4 hPa 0,0 l/m 7,2 km/h N 2,0 C 8,6 C 18,5 km/h
15.03.2012 12:00 10,0 C 57 % 1030,7 hPa 0,0 l/m 5,9 km/h N 1,8 C 9,9 C 16,1 km/h
15.03.2012 13:00 11,0 C 55 % 1029,8 hPa 0,0 l/m 5,6 km/h N 2,2 C 11,0 C 14,9 km/h
15.03.2012 14:00 11,7 C 53 % 1029,1 hPa 0,0 l/m 4,4 km/h N 2,3 C 11,7 C 14,9 km/h
15.03.2012 15:00 11,9 C 51 % 1028,5 hPa 0,0 l/m 4,3 km/h N 2,0 C 11,9 C 10,9 km/h
15.03.2012 16:00 12,0 C 52 % 1028,1 hPa 0,0 l/m 4,5 km/h N 2,3 C 12,0 C 13,3 km/h
15.03.2012 17:00 10,9 C 54 % 1028,1 hPa 0,0 l/m 2,7 km/h N 1,9 C 10,9 C 8,0 km/h
15.03.2012 18:00 8,5 C 61 % 1028,2 hPa 0,0 l/m 0,2 km/h N 1,3 C 8,5 C 2,0 km/h
15.03.2012 19:00 6,4 C 69 % 1028,4 hPa 0,0 l/m 0,1 km/h N 1,1 C 6,4 C 1,2 km/h
15.03.2012 20:00 4,8 C 74 % 1028,5 hPa 0,0 l/m 0,0 km/h N 0,6 C 4,8 C 0,0 km/h
15.03.2012 21:00 4,0 C 77 % 1028,6 hPa 0,0 l/m 0,0 km/h N 0,3 C 4,0 C 0,4 km/h
15.03.2012 22:00 3,1 C 79 % 1028,7 hPa 0,0 l/m 0,0 km/h N -0,1 C 3,1 C 1,2 km/h
15.03.2012 23:00 2,8 C 81 % 1028,8 hPa 0,0 l/m 0,0 km/h N -0,2 C 2,8 C 1,6 km/h
16.03.2012 00:00 2,9 C 81 % 1028,7 hPa 0,0 l/m 0,2 km/h N -0,1 C 2,9 C 2,4 km/h
16.03.2012 01:00 2,7 C 81 % 1028,5 hPa 0,0 l/m 0,4 km/h N -0,2 C 2,7 C 3,6 km/h
16.03.2012 02:00 2,0 C 83 % 1028,0 hPa 0,0 l/m 0,1 km/h N -0,6 C 2,0 C 2,0 km/h
16.03.2012 03:00 1,9 C 83 % 1027,8 hPa 0,0 l/m 1,0 km/h N -0,6 C 1,9 C 5,2 km/h
16.03.2012 04:00 1,1 C 84 % 1027,7 hPa 0,0 l/m 0,5 km/h N -1,3 C 1,1 C 4,0 km/h
16.03.2012 05:00 0,1 C 84 % 1027,5 hPa 0,0 l/m 0,0 km/h N -2,3 C 0,1 C 1,6 km/h
16.03.2012 06:00 -0,8 C 83 % 1027,7 hPa 0,0 l/m 0,0 km/h N -3,4 C -0,8 C 0,4 km/h
16.03.2012 07:00 1,1 C 83 % 1027,7 hPa 0,0 l/m 0,0 km/h N -1,5 C 1,1 C 0,0 km/h
16.03.2012 08:00 4,6 C 79 % 1027,4 hPa 0,0 l/m 0,1 km/h N 1,2 C 4,6 C 2,0 km/h
16.03.2012 09:00 7,3 C 73 % 1027,1 hPa 0,0 l/m 0,8 km/h N 2,7 C 7,3 C 5,2 km/h
16.03.2012 10:00 10,1 C 62 % 1026,8 hPa 0,0 l/m 1,1 km/h N 3,1 C 10,1 C 5,2 km/h
16.03.2012 11:00 13,1 C 56 % 1026,2 hPa 0,0 l/m 1,7 km/h N 4,5 C 13,1 C 8,8 km/h
16.03.2012 12:00 15,0 C 48 % 1025,6 hPa 0,0 l/m 1,9 km/h N 4,0 C 15,0 C 7,2 km/h
16.03.2012 13:00 16,5 C 44 % 1024,9 hPa 0,0 l/m 1,9 km/h N 4,1 C 16,5 C 7,6 km/h
16.03.2012 14:00 17,8 C 41 % 1024,2 hPa 0,0 l/m 1,7 km/h N 4,4 C 17,8 C 8,0 km/h
16.03.2012 15:00 18,3 C 37 % 1023,5 hPa 0,0 l/m 2,3 km/h N 3,5 C 18,3 C 9,3 km/h
16.03.2012 16:00 18,5 C 38 % 1023,2 hPa 0,0 l/m 2,7 km/h N 4,0 C 18,5 C 8,4 km/h
16.03.2012 17:00 17,4 C 41 % 1023,0 hPa 0,0 l/m 1,1 km/h N 4,0 C 17,4 C 4,8 km/h
16.03.2012 18:00 12,2 C 56 % 1023,1 hPa 0,0 l/m 0,0 km/h N 3,6 C 12,2 C 0,0 km/h
16.03.2012 19:00 8,6 C 68 % 1023,2 hPa 0,0 l/m 0,0 km/h N 3,0 C 8,6 C 0,0 km/h
16.03.2012 20:00 6,5 C 75 % 1023,1 hPa 0,0 l/m 0,0 km/h N 2,3 C 6,5 C 0,0 km/h
16.03.2012 21:00 5,2 C 79 % 1022,8 hPa 0,0 l/m 0,0 km/h N 1,9 C 5,2 C 0,4 km/h
16.03.2012 22:00 4,7 C 79 % 1022,7 hPa 0,0 l/m 0,0 km/h N 1,3 C 4,7 C 0,0 km/h
16.03.2012 23:00 4,3 C 81 % 1022,5 hPa 0,0 l/m 0,5 km/h N 1,2 C 4,3 C 4,0 km/h
17.03.2012 00:00 3,4 C 82 % 1022,3 hPa 0,0 l/m 0,0 km/h N 0,6 C 3,4 C 0,0 km/h
17.03.2012 01:00 2,0 C 83 % 1022,2 hPa 0,0 l/m 0,0 km/h N -0,6 C 2,0 C 0,0 km/h
17.03.2012 02:00 1,5 C 83 % 1021,8 hPa 0,0 l/m 0,0 km/h N -1,1 C 1,5 C 0,0 km/h
17.03.2012 03:00 0,8 C 82 % 1021,7 hPa 0,0 l/m 0,0 km/h N -1,8 C 0,8 C 0,0 km/h
17.03.2012 04:00 0,7 C 81 % 1021,8 hPa 0,0 l/m 0,0 km/h N -2,1 C 0,7 C 0,0 km/h
17.03.2012 05:00 -0,1 C 81 % 1022,0 hPa 0,0 l/m 0,0 km/h N -2,9 C -0,1 C 0,0 km/h
17.03.2012 06:00 -0,1 C 81 % 1022,4 hPa 0,0 l/m 0,0 km/h N -3,0 C -0,1 C 0,0 km/h
17.03.2012 07:00 2,8 C 79 % 1022,4 hPa 0,0 l/m 0,0 km/h N -0,4 C 2,8 C 0,8 km/h
17.03.2012 08:00 7,9 C 71 % 1022,2 hPa 0,0 l/m 1,2 km/h N 3,0 C 7,9 C 6,4 km/h
17.03.2012 09:00 9,9 C 63 % 1022,0 hPa 0,0 l/m 0,6 km/h N 3,0 C 9,9 C 5,2 km/h
17.03.2012 10:00 11,8 C 57 % 1021,7 hPa 0,0 l/m 1,1 km/h N 3,6 C 11,8 C 7,2 km/h
17.03.2012 11:00 13,9 C 52 % 1021,1 hPa 0,0 l/m 1,6 km/h N 4,2 C 13,9 C 6,8 km/h
17.03.2012 12:00 16,1 C 49 % 1020,7 hPa 0,0 l/m 1,7 km/h N 5,3 C 16,1 C 7,6 km/h
17.03.2012 13:00 17,5 C 43 % 1019,8 hPa 0,0 l/m 1,6 km/h N 4,6 C 17,5 C 7,6 km/h
17.03.2012 14:00 18,6 C 41 % 1019,0 hPa 0,0 l/m 1,7 km/h N 5,0 C 18,6 C 9,3 km/h
17.03.2012 15:00 18,8 C 40 % 1018,3 hPa 0,0 l/m 2,2 km/h N 4,7 C 18,8 C 10,5 km/h
17.03.2012 16:00 19,1 C 37 % 1017,6 hPa 0,0 l/m 1,5 km/h N 4,2 C 19,1 C 7,6 km/h
17.03.2012 17:00 17,4 C 42 % 1017,3 hPa 0,0 l/m 0,1 km/h N 4,4 C 17,4 C 1,6 km/h
17.03.2012 18:00 12,7 C 57 % 1017,2 hPa 0,0 l/m 0,0 km/h N 4,2 C 12,7 C 0,0 km/h
17.03.2012 19:00 9,3 C 68 % 1016,8 hPa 0,0 l/m 0,0 km/h N 3,7 C 9,3 C 0,0 km/h
17.03.2012 20:00 8,0 C 71 % 1016,2 hPa 0,0 l/m 0,0 km/h N 3,0 C 8,0 C 0,0 km/h
17.03.2012 21:00 7,6 C 71 % 1016,0 hPa 0,0 l/m 0,1 km/h N 2,7 C 7,6 C 2,0 km/h
17.03.2012 22:00 6,7 C 74 % 1015,6 hPa 0,0 l/m 0,0 km/h N 2,4 C 6,7 C 0,4 km/h
17.03.2012 23:00 6,0 C 77 % 1015,6 hPa 0,0 l/m 0,0 km/h N 2,3 C 6,0 C 0,4 km/h
18.03.2012 00:00 7,0 C 74 % 1015,9 hPa 0,0 l/m 1,9 km/h N 2,6 C 7,0 C 10,1 km/h
18.03.2012 01:00 7,6 C 71 % 1015,7 hPa 0,0 l/m 0,8 km/h N 2,6 C 7,6 C 7,2 km/h
18.03.2012 02:00 5,3 C 77 % 1015,8 hPa 0,0 l/m 0,4 km/h N 1,6 C 5,3 C 4,0 km/h
18.03.2012 03:00 5,1 C 77 % 1016,1 hPa 0,0 l/m 1,1 km/h N 1,4 C 5,1 C 6,8 km/h
18.03.2012 04:00 3,6 C 81 % 1016,6 hPa 0,0 l/m 0,2 km/h N 0,6 C 3,6 C 2,8 km/h
18.03.2012 05:00 2,5 C 83 % 1017,3 hPa 0,0 l/m 0,1 km/h N -0,1 C 2,5 C 2,4 km/h
18.03.2012 06:00 2,1 C 83 % 1017,9 hPa 0,0 l/m 0,0 km/h N -0,4 C 2,1 C 0,0 km/h
18.03.2012 07:00 5,3 C 81 % 1017,9 hPa 0,0 l/m 0,0 km/h N 2,3 C 5,3 C 0,8 km/h
18.03.2012 08:00 11,0 C 64 % 1017,7 hPa 0,0 l/m 0,1 km/h N 4,3 C 11,0 C 1,2 km/h
18.03.2012 09:00 13,4 C 56 % 1017,4 hPa 0,0 l/m 1,0 km/h N 4,9 C 13,4 C 6,4 km/h
18.03.2012 10:00 15,0 C 51 % 1017,0 hPa 0,0 l/m 1,8 km/h N 4,7 C 15,0 C 7,6 km/h
18.03.2012 11:00 17,3 C 46 % 1016,3 hPa 0,0 l/m 1,8 km/h N 5,3 C 17,3 C 7,6 km/h
18.03.2012 12:00 18,8 C 42 % 1015,3 hPa 0,0 l/m 2,1 km/h N 5,5 C 18,8 C 12,5 km/h
18.03.2012 13:00 19,8 C 36 % 1014,1 hPa 0,0 l/m 1,8 km/h N 4,1 C 19,8 C 10,1 km/h
18.03.2012 14:00 20,4 C 34 % 1012,9 hPa 0,0 l/m 2,1 km/h N 3,8 C 20,4 C 8,9 km/h
18.03.2012 15:00 20,9 C 33 % 1012,1 hPa 0,0 l/m 5,7 km/h N 4,0 C 20,5 C 18,5 km/h
18.03.2012 16:00 19,8 C 36 % 1011,6 hPa 0,0 l/m 8,0 km/h N 4,1 C 19,1 C 23,7 km/h
18.03.2012 17:00 18,4 C 39 % 1011,6 hPa 0,0 l/m 5,9 km/h N 4,0 C 18,3 C 18,5 km/h
18.03.2012 18:00 16,9 C 42 % 1011,8 hPa 0,0 l/m 4,9 km/h N 3,8 C 16,9 C 19,3 km/h
18.03.2012 19:00 14,5 C 47 % 1012,3 hPa 0,0 l/m 0,6 km/h N 3,2 C 14,5 C 4,0 km/h
18.03.2012 20:00 12,7 C 51 % 1012,5 hPa 0,0 l/m 0,2 km/h N 2,9 C 12,7 C 2,8 km/h
18.03.2012 21:00 12,8 C 51 % 1012,8 hPa 0,0 l/m 0,6 km/h N 2,9 C 12,8 C 5,2 km/h
18.03.2012 22:00 12,6 C 51 % 1013,1 hPa 0,0 l/m 2,3 km/h N 2,7 C 12,6 C 6,8 km/h
18.03.2012 23:00 12,4 C 51 % 1013,6 hPa 0,0 l/m 2,8 km/h N 2,5 C 12,4 C 6,8 km/h
Min-Datum _ 16.03.12 18.03.12 18.03.12 - 15.03.12 - 16.03.12 16.03.12 15.03.12
_ Min-Zeit 06:30 14:30 16:45 - 18:15 - 06:30 06:30 18:30
Minimum _ -1,3 C 32 % 1011,5 hPa - 0,0 km/h - -3,8 C -1,3 C 0,0 km/h
Max-Datum _ 18.03.12 16.03.12 15.03.12 13.03.12 14.03.12 - 17.03.12 18.03.12 12.03.12
_ Max-Zeit 15:15 02:45 09:00 01:00 06:00 - 12:15 15:15 13:30
Maximum _ 21,3 C 84 % 1031,6 hPa 0,8 l/m 18,8 km/h
N
- 6,3 C 21,2 C 40,2 km/h
N
Durchschnitt _ 8,8 C 67 % 1023,9 hPa #1,3 l/m 6,2 km/h N 2,7 C 7,2 C 15,2 km/h